createdAt,value
2023-02-20T00:00:20.547Z,0.20
2023-02-20T00:02:48.043Z,0.10
2023-02-20T00:05:15.267Z,0.10
2023-02-20T00:07:42.901Z,0.10
2023-02-20T00:10:10.300Z,0.20
2023-02-20T00:12:37.451Z,0.30
2023-02-20T00:15:04.739Z,0.20
2023-02-20T00:17:31.700Z,0.20
2023-02-20T00:19:58.598Z,0.10
2023-02-20T00:22:25.698Z,0.20
2023-02-20T00:24:52.632Z,0.60
2023-02-20T00:27:19.761Z,0.30
2023-02-20T00:29:46.900Z,0.10
2023-02-20T00:32:15.798Z,0.17
2023-02-20T00:34:42.892Z,0.27
2023-02-20T00:37:09.844Z,0.50
2023-02-20T00:39:36.768Z,0.10
2023-02-20T00:42:06.228Z,0.40
2023-02-20T00:44:33.127Z,0.10
2023-02-20T00:47:00.099Z,0.37
2023-02-20T00:49:27.067Z,0.20
2023-02-20T00:51:54.119Z,0.17
2023-02-20T00:54:21.101Z,0.13
2023-02-20T00:56:48.109Z,0.10
2023-02-20T00:59:15.126Z,0.20
2023-02-20T01:01:42.084Z,0.40
2023-02-20T01:04:09.145Z,0.10
2023-02-20T01:06:36.045Z,0.10
2023-02-20T01:09:03.233Z,0.10
2023-02-20T01:11:30.313Z,0.10
2023-02-20T01:13:59.611Z,0.23
2023-02-20T01:16:26.564Z,0.10
2023-02-20T01:18:53.726Z,0.20
2023-02-20T01:21:20.640Z,0.10
2023-02-20T01:23:48.940Z,0.10
2023-02-20T01:26:16.175Z,0.10
2023-02-20T01:28:45.629Z,0.20
2023-02-20T01:31:12.780Z,0.27
2023-02-20T01:33:43.313Z,0.10
2023-02-20T01:36:11.758Z,0.10
2023-02-20T01:38:40.236Z,0.10
2023-02-20T01:41:08.629Z,0.10
2023-02-20T01:43:35.692Z,0.20
2023-02-20T01:46:41.749Z,0.10
2023-02-20T01:49:11.766Z,0.00
2023-02-20T01:51:43.462Z,0.10
2023-02-20T01:54:12.096Z,0.03
2023-02-20T01:56:39.099Z,0.10
2023-02-20T01:59:06.250Z,0.10
2023-02-20T02:01:33.486Z,0.10
2023-02-20T02:04:02.646Z,0.10
2023-02-20T02:06:29.766Z,0.10
2023-02-20T02:08:59.216Z,0.10
2023-02-20T02:11:26.204Z,0.10
2023-02-20T02:13:53.106Z,0.10
2023-02-20T02:16:48.058Z,0.00
2023-02-20T02:19:27.172Z,0.10
2023-02-20T02:22:22.165Z,0.10
2023-02-20T02:24:52.272Z,0.10
2023-02-20T02:27:49.579Z,0.00
2023-02-20T02:35:21.310Z,0.10
2023-02-20T02:38:13.901Z,0.10
2023-02-20T02:40:59.154Z,0.10
2023-02-20T02:43:35.873Z,0.07
2023-02-20T02:46:37.738Z,0.10
2023-02-20T02:49:09.661Z,0.00
2023-02-20T02:51:39.312Z,0.10
2023-02-20T02:54:14.459Z,0.10
2023-02-20T02:56:44.754Z,0.10
2023-02-20T02:59:13.855Z,0.60
2023-02-20T03:01:43.612Z,0.00
2023-02-20T03:04:12.680Z,0.10
2023-02-20T03:06:43.113Z,0.20
2023-02-20T03:09:16.129Z,0.10
2023-02-20T03:11:43.150Z,0.10
2023-02-20T03:14:30.737Z,0.10
2023-02-20T03:17:03.203Z,0.17
2023-02-20T03:19:52.493Z,0.03
2023-02-20T03:22:34.889Z,0.10
2023-02-20T03:25:10.883Z,0.20
2023-02-20T03:27:39.921Z,0.10
2023-02-20T03:30:17.503Z,0.00
2023-02-20T03:33:03.386Z,0.10
2023-02-20T03:35:49.028Z,0.10
2023-02-20T03:38:34.610Z,0.10
2023-02-20T03:41:20.041Z,0.00
2023-02-20T03:43:47.097Z,0.00
2023-02-20T03:46:18.923Z,0.00
2023-02-20T03:48:55.531Z,0.10
2023-02-20T03:51:41.372Z,0.00
2023-02-20T03:54:16.377Z,0.00
2023-02-20T03:56:53.063Z,0.10
2023-02-20T03:59:24.589Z,0.00
2023-02-20T04:01:54.765Z,0.00
2023-02-20T04:04:26.405Z,0.10
2023-02-20T04:06:53.576Z,0.00
2023-02-20T04:09:24.501Z,0.00
2023-02-20T04:11:59.086Z,0.00
2023-02-20T04:14:27.683Z,0.00
2023-02-20T04:17:09.202Z,0.10
2023-02-20T04:19:36.394Z,0.00
2023-02-20T04:22:04.987Z,0.13
2023-02-20T04:24:38.405Z,0.00
2023-02-20T04:27:05.397Z,0.00
2023-02-20T04:29:35.405Z,0.00
2023-02-20T04:32:02.450Z,0.00
2023-02-20T04:34:33.290Z,0.00
2023-02-20T04:37:11.492Z,0.00
2023-02-20T04:39:38.766Z,0.00
2023-02-20T04:42:05.900Z,0.10
2023-02-20T04:44:35.050Z,0.00
2023-02-20T04:47:05.976Z,0.00
2023-02-20T04:49:33.024Z,0.00
2023-02-20T04:52:02.141Z,0.00
2023-02-20T04:54:29.292Z,0.00
2023-02-20T04:56:56.277Z,0.00
2023-02-20T04:59:23.319Z,0.10
2023-02-20T05:01:52.049Z,0.00
2023-02-20T05:04:19.566Z,0.00
2023-02-20T05:06:48.975Z,0.00
2023-02-20T05:09:16.145Z,0.13
2023-02-20T05:11:43.084Z,0.00
2023-02-20T05:14:10.081Z,0.30
2023-02-20T05:16:38.613Z,0.07
2023-02-20T05:19:05.968Z,0.20
2023-02-20T05:21:51.397Z,0.00
2023-02-20T05:24:18.508Z,0.10
2023-02-20T05:26:45.402Z,0.00
2023-02-20T05:29:13.584Z,0.30
2023-02-20T05:31:40.830Z,0.13
2023-02-20T05:34:08.594Z,0.00
2023-02-20T05:36:35.493Z,0.20
2023-02-20T05:39:03.340Z,0.10
2023-02-20T05:41:30.463Z,0.10
2023-02-20T05:43:58.456Z,0.03
2023-02-20T05:46:26.133Z,0.10
2023-02-20T05:48:53.437Z,0.30
2023-02-20T05:51:29.928Z,0.10
2023-02-20T05:53:56.967Z,0.40
2023-02-20T05:56:24.074Z,0.13
2023-02-20T05:58:51.183Z,0.10
2023-02-20T06:01:29.124Z,0.10
2023-02-20T06:03:56.132Z,0.10
2023-02-20T06:06:23.302Z,0.17
2023-02-20T06:08:50.334Z,0.10
2023-02-20T06:11:17.513Z,0.20
2023-02-20T06:13:45.049Z,0.10
2023-02-20T06:16:12.464Z,0.10
2023-02-20T06:18:40.661Z,0.23
2023-02-20T06:21:11.101Z,0.10
2023-02-20T06:23:38.555Z,0.10
2023-02-20T06:26:08.766Z,0.07
2023-02-20T06:28:35.725Z,0.20
2023-02-20T06:31:02.853Z,0.20
2023-02-20T06:33:30.089Z,0.10
2023-02-20T06:35:57.092Z,0.47
2023-02-20T06:38:24.510Z,0.00
2023-02-20T06:40:51.532Z,0.00
2023-02-20T06:43:18.782Z,0.10
2023-02-20T06:45:45.792Z,0.10
2023-02-20T06:48:14.409Z,0.10
2023-02-20T06:50:42.602Z,0.10
2023-02-20T06:53:09.601Z,0.10
2023-02-20T06:55:36.595Z,0.10
2023-02-20T06:58:03.535Z,0.13
2023-02-20T07:00:30.788Z,0.00
2023-02-20T07:02:57.913Z,0.10
2023-02-20T07:05:25.263Z,0.00
2023-02-20T07:07:52.328Z,0.20
2023-02-20T07:10:19.251Z,0.10
2023-02-20T07:12:46.225Z,0.10
2023-02-20T07:15:13.597Z,0.10
2023-02-20T07:17:40.660Z,0.20
2023-02-20T07:20:08.148Z,0.10
2023-02-20T07:23:01.019Z,0.10
2023-02-20T07:25:28.085Z,0.10
2023-02-20T07:27:55.330Z,0.20
2023-02-20T07:30:25.117Z,0.20
2023-02-20T07:32:53.703Z,0.13
2023-02-20T07:35:20.677Z,0.10
2023-02-20T07:37:47.741Z,0.10
2023-02-20T07:40:14.742Z,0.10
2023-02-20T07:42:41.693Z,0.10
2023-02-20T07:45:22.021Z,0.10
2023-02-20T07:47:49.095Z,0.00
2023-02-20T07:50:16.739Z,0.00
2023-02-20T07:52:44.443Z,0.10
2023-02-20T07:55:15.751Z,0.03
2023-02-20T07:57:42.965Z,0.00
2023-02-20T08:00:13.278Z,0.00
2023-02-20T08:02:40.246Z,0.10
2023-02-20T08:05:07.237Z,0.10
2023-02-20T08:07:35.166Z,0.00
2023-02-20T08:10:02.426Z,0.00
2023-02-20T08:12:29.476Z,0.07
2023-02-20T08:14:56.525Z,0.00
2023-02-20T08:17:24.208Z,0.00
2023-02-20T08:19:53.406Z,0.03
2023-02-20T08:22:22.649Z,0.00
2023-02-20T08:24:52.821Z,0.00
2023-02-20T08:27:19.857Z,0.00
2023-02-20T08:29:47.067Z,0.00
2023-02-20T08:32:15.355Z,0.00
2023-02-20T08:34:42.569Z,0.00
2023-02-20T08:37:10.098Z,0.00
2023-02-20T08:39:37.413Z,0.00
2023-02-20T08:42:04.462Z,0.00
2023-02-20T08:44:31.409Z,0.00
2023-02-20T08:46:58.434Z,0.00
2023-02-20T08:49:27.174Z,0.00
2023-02-20T08:51:55.483Z,0.00
2023-02-20T08:54:22.509Z,0.00
2023-02-20T08:56:49.760Z,0.00
2023-02-20T08:59:17.071Z,0.00
2023-02-20T09:01:44.082Z,0.00
2023-02-20T09:04:11.103Z,0.00
2023-02-20T09:06:39.321Z,0.00
2023-02-20T09:09:06.331Z,0.00
2023-02-20T09:11:33.913Z,0.00
2023-02-20T09:14:01.181Z,0.00
2023-02-20T09:16:28.581Z,0.00
2023-02-20T09:18:57.480Z,0.00
2023-02-20T09:21:24.666Z,0.00
2023-02-20T09:23:51.681Z,0.00
2023-02-20T09:26:18.909Z,0.00
2023-02-20T09:28:45.875Z,0.00
2023-02-20T09:31:12.950Z,0.00
2023-02-20T09:33:43.586Z,0.00
2023-02-20T09:36:10.843Z,0.00
2023-02-20T09:38:38.118Z,0.00
2023-02-20T09:41:05.309Z,0.00
2023-02-20T09:43:40.444Z,0.00
2023-02-20T09:46:18.625Z,0.00
2023-02-20T09:48:58.574Z,0.00
2023-02-20T09:51:29.340Z,0.00
2023-02-20T09:53:57.578Z,0.00
2023-02-20T09:56:31.006Z,0.00
2023-02-20T09:59:03.249Z,0.00
2023-02-20T10:01:30.364Z,0.00
2023-02-20T10:04:10.145Z,0.00
2023-02-20T10:06:37.177Z,0.10
2023-02-20T10:09:04.884Z,0.00
2023-02-20T10:11:51.137Z,0.00
2023-02-20T10:14:40.461Z,0.00
2023-02-20T10:17:16.423Z,0.00
2023-02-20T10:20:03.744Z,0.00
2023-02-20T10:22:49.978Z,0.00
2023-02-20T10:25:30.503Z,0.00
2023-02-20T10:28:10.762Z,0.00
2023-02-20T10:31:14.712Z,0.00
2023-02-20T10:33:50.836Z,0.00
2023-02-20T10:36:19.593Z,0.00
2023-02-20T10:39:06.842Z,0.00
2023-02-20T10:41:56.619Z,0.00
2023-02-20T10:44:37.625Z,0.00
2023-02-20T10:47:31.857Z,0.00
2023-02-20T10:50:04.905Z,0.00
2023-02-20T10:52:39.594Z,0.00
2023-02-20T10:55:11.998Z,0.00
2023-02-20T10:57:44.210Z,0.00
2023-02-20T11:00:18.231Z,0.00
2023-02-20T11:02:52.362Z,0.00
2023-02-20T11:05:23.790Z,0.00
2023-02-20T11:07:51.315Z,0.00
2023-02-20T11:10:18.781Z,0.00
2023-02-20T11:12:54.300Z,0.00
2023-02-20T11:15:23.296Z,0.00
2023-02-20T11:17:54.341Z,0.00
2023-02-20T11:20:38.480Z,0.00
2023-02-20T11:23:05.501Z,0.00
2023-02-20T11:25:36.298Z,0.00
2023-02-20T11:28:23.220Z,0.00
2023-02-20T11:31:01.986Z,0.00
2023-02-20T11:33:30.837Z,0.00
2023-02-20T11:36:10.151Z,0.00
2023-02-20T11:38:38.005Z,0.00
2023-02-20T11:41:27.787Z,0.00
2023-02-20T11:44:13.277Z,0.00
2023-02-20T11:46:40.457Z,0.00
2023-02-20T11:49:10.043Z,0.00
2023-02-20T11:51:41.286Z,0.00
2023-02-20T11:54:26.098Z,0.00
2023-02-20T11:57:10.376Z,0.00
2023-02-20T11:59:38.661Z,0.00
2023-02-20T12:02:18.371Z,0.00
2023-02-20T12:05:12.575Z,0.00
2023-02-20T12:07:52.429Z,0.00
2023-02-20T12:10:40.524Z,0.00
2023-02-20T12:13:09.296Z,0.00
2023-02-20T12:15:36.370Z,0.00
2023-02-20T12:18:19.313Z,0.00
2023-02-20T12:21:25.177Z,0.00
2023-02-20T12:23:58.370Z,0.00
2023-02-20T12:26:54.566Z,0.00
2023-02-20T12:29:42.445Z,0.07
2023-02-20T12:32:16.280Z,0.00
2023-02-20T12:34:48.284Z,0.00
2023-02-20T12:37:29.634Z,0.00
2023-02-20T12:40:25.848Z,0.00
2023-02-20T12:43:20.923Z,0.30
2023-02-20T12:46:40.410Z,0.00
2023-02-20T12:49:44.840Z,0.00
2023-02-20T12:52:48.110Z,0.00
2023-02-20T12:55:35.581Z,0.05
2023-02-20T12:58:10.096Z,0.00
2023-02-20T13:00:40.018Z,0.00
2023-02-20T13:03:24.020Z,0.00
2023-02-20T13:05:51.338Z,0.43
2023-02-20T13:08:33.117Z,0.00
2023-02-20T13:11:02.688Z,0.00
2023-02-20T13:13:37.908Z,0.00
2023-02-20T13:16:08.058Z,0.00
2023-02-20T13:18:46.827Z,0.00
2023-02-20T13:21:15.383Z,0.00
2023-02-20T13:23:42.608Z,0.00
2023-02-20T13:26:37.385Z,0.00
2023-02-20T13:29:17.917Z,0.03
2023-02-20T13:31:52.749Z,0.00
2023-02-20T13:34:19.758Z,0.00
2023-02-20T13:36:52.041Z,0.00
2023-02-20T13:39:21.754Z,0.10
2023-02-20T13:41:55.357Z,0.00
2023-02-20T13:44:31.039Z,0.00
2023-02-20T13:47:04.917Z,0.00
2023-02-20T13:49:49.928Z,0.00
2023-02-20T13:52:39.542Z,0.00
2023-02-20T13:55:22.600Z,0.00
2023-02-20T13:58:02.615Z,0.00
2023-02-20T14:00:53.211Z,0.00
2023-02-20T14:03:26.145Z,0.00
2023-02-20T14:06:05.878Z,0.63
2023-02-20T14:08:33.191Z,0.03
2023-02-20T14:11:11.048Z,0.00
2023-02-20T14:13:40.705Z,0.00
2023-02-20T14:16:26.712Z,0.00
2023-02-20T14:19:00.342Z,0.00
2023-02-20T14:21:28.005Z,0.00
2023-02-20T14:23:55.528Z,0.00
2023-02-20T14:26:23.659Z,0.00
2023-02-20T14:28:52.386Z,0.08
2023-02-20T14:31:34.351Z,0.00
2023-02-20T14:34:03.566Z,0.00
2023-02-20T14:36:59.253Z,0.00
2023-02-20T14:39:37.564Z,0.00
2023-02-20T14:42:05.209Z,0.25
2023-02-20T14:44:32.514Z,0.30
2023-02-20T14:47:08.786Z,0.00
2023-02-20T14:52:22.111Z,0.00
2023-02-20T14:55:00.774Z,0.10
2023-02-20T14:57:28.366Z,0.00
2023-02-20T15:00:17.428Z,0.00
2023-02-20T15:02:46.732Z,0.00
2023-02-20T15:05:18.111Z,0.00
2023-02-20T15:07:45.078Z,0.45
2023-02-20T15:10:38.510Z,0.10
2023-02-20T15:13:10.679Z,0.00
2023-02-20T15:15:39.101Z,0.10
2023-02-20T15:18:17.373Z,0.13
2023-02-20T15:20:45.477Z,0.00
2023-02-20T15:23:25.838Z,0.20
2023-02-20T15:25:52.826Z,0.05
2023-02-20T15:28:19.770Z,0.00
2023-02-20T15:31:05.340Z,0.00
2023-02-20T15:33:41.038Z,0.10
2023-02-20T15:36:13.173Z,0.10
2023-02-20T15:38:41.766Z,0.10
2023-02-20T15:41:09.561Z,0.10
2023-02-20T15:43:47.191Z,0.00
2023-02-20T15:46:19.751Z,0.10
2023-02-20T15:48:46.884Z,0.00
2023-02-20T15:51:17.679Z,0.00
2023-02-20T15:53:45.884Z,0.00
2023-02-20T15:56:13.664Z,0.10
2023-02-20T15:58:42.976Z,0.00
2023-02-20T16:01:10.493Z,0.00
2023-02-20T16:03:49.550Z,0.00
2023-02-20T16:06:19.679Z,0.00
2023-02-20T16:08:47.020Z,0.10
2023-02-20T16:11:14.386Z,0.00
2023-02-20T16:13:43.573Z,0.05
2023-02-20T16:16:25.288Z,0.00
2023-02-20T16:18:54.882Z,0.00
2023-02-20T16:21:22.730Z,0.00
2023-02-20T16:23:50.361Z,0.00
2023-02-20T16:26:18.763Z,0.00
2023-02-20T16:29:00.708Z,0.00
2023-02-20T16:31:53.006Z,0.03
2023-02-20T16:34:23.140Z,0.00
2023-02-20T16:36:50.737Z,0.00
2023-02-20T16:39:26.210Z,0.25
2023-02-20T16:41:53.815Z,0.03
2023-02-20T16:44:37.197Z,4.38
2023-02-20T16:47:05.814Z,3.17
2023-02-20T16:49:37.353Z,0.40
2023-02-20T16:52:21.567Z,0.60
2023-02-20T16:54:49.589Z,6.55
2023-02-20T16:57:17.217Z,6.32
2023-02-20T16:59:44.470Z,22.38
2023-02-20T17:02:15.990Z,4.78
2023-02-20T17:04:43.186Z,39.90
2023-02-20T17:07:10.589Z,51.85
2023-02-20T17:09:44.229Z,55.30
2023-02-20T17:12:12.810Z,52.13
2023-02-20T17:14:39.866Z,24.92
2023-02-20T17:17:07.003Z,27.38
2023-02-20T17:19:36.840Z,21.58
2023-02-20T17:22:04.156Z,11.98
2023-02-20T17:24:32.920Z,13.00
2023-02-20T17:27:00.574Z,16.90
2023-02-20T17:29:27.703Z,26.70
2023-02-20T17:31:55.118Z,20.85
2023-02-20T17:34:22.101Z,11.90
2023-02-20T17:36:49.490Z,10.77
2023-02-20T17:39:17.257Z,3.55
2023-02-20T17:41:44.465Z,6.05
2023-02-20T17:44:11.929Z,5.90
2023-02-20T17:46:39.198Z,4.75
2023-02-20T17:49:06.324Z,2.00
2023-02-20T17:51:33.423Z,5.38
2023-02-20T17:54:00.364Z,3.53
2023-02-20T17:56:27.540Z,8.15
2023-02-20T17:58:54.629Z,16.98
2023-02-20T18:01:27.228Z,11.52
2023-02-20T18:03:55.443Z,6.55
2023-02-20T18:06:22.650Z,3.60
2023-02-20T18:08:50.550Z,3.83
2023-02-20T18:11:17.708Z,2.38
2023-02-20T18:13:45.133Z,1.92
2023-02-20T18:16:12.394Z,0.55
2023-02-20T18:18:40.107Z,3.45
2023-02-20T18:21:17.147Z,2.83
2023-02-20T18:23:47.060Z,2.47
2023-02-20T18:26:14.631Z,0.20
2023-02-20T18:28:42.072Z,0.32
2023-02-20T18:31:09.414Z,0.38
2023-02-20T18:33:37.132Z,0.60
2023-02-20T18:36:08.586Z,0.20
2023-02-20T18:38:36.360Z,0.32
2023-02-20T18:41:03.719Z,0.10
2023-02-20T18:43:31.141Z,0.38
2023-02-20T18:45:58.247Z,0.20
2023-02-20T18:48:26.003Z,0.10
2023-02-20T18:50:56.636Z,0.10
2023-02-20T18:53:24.976Z,0.10
2023-02-20T18:55:52.560Z,0.10
2023-02-20T18:58:21.037Z,0.10
2023-02-20T19:00:49.542Z,0.10
2023-02-20T19:03:21.005Z,0.10
2023-02-20T19:05:50.040Z,0.10
2023-02-20T19:08:17.809Z,0.25
2023-02-20T19:13:26.566Z,0.10
2023-02-20T19:15:53.656Z,0.10
2023-02-20T19:18:21.503Z,0.20
2023-02-20T19:20:48.588Z,0.45
2023-02-20T19:23:16.845Z,0.10
2023-02-20T19:25:49.665Z,0.10
2023-02-20T19:28:16.816Z,0.77
2023-02-20T19:30:44.383Z,0.30
2023-02-20T19:33:11.822Z,0.20
2023-02-20T19:35:38.793Z,0.20
2023-02-20T19:38:05.822Z,0.10
2023-02-20T19:40:33.092Z,0.20
2023-02-20T19:43:00.679Z,0.10
2023-02-20T19:45:28.763Z,0.30
2023-02-20T19:47:56.078Z,0.20
2023-02-20T19:50:30.244Z,0.10
2023-02-20T19:52:57.941Z,0.30
2023-02-20T19:55:25.202Z,0.52
2023-02-20T19:57:52.540Z,0.50
2023-02-20T20:00:20.404Z,0.55
2023-02-20T20:02:47.669Z,0.65
2023-02-20T20:05:15.439Z,0.80
2023-02-20T20:07:42.673Z,1.00
2023-02-20T20:10:10.447Z,1.13
2023-02-20T20:12:46.640Z,0.80
2023-02-20T20:15:19.932Z,2.08
2023-02-20T20:17:59.471Z,1.45
2023-02-20T20:20:27.905Z,1.15
2023-02-20T20:22:59.414Z,1.60
2023-02-20T20:25:26.597Z,1.25
2023-02-20T20:28:00.963Z,1.30
2023-02-20T20:30:29.121Z,1.08
2023-02-20T20:33:01.766Z,1.52
2023-02-20T20:35:29.751Z,1.40
2023-02-20T20:37:57.072Z,1.13
2023-02-20T20:40:26.137Z,1.30
2023-02-20T20:42:55.161Z,1.50
2023-02-20T20:45:22.457Z,1.38
2023-02-20T20:47:49.438Z,1.58
2023-02-20T20:50:24.255Z,1.42
2023-02-20T20:52:52.525Z,1.70
2023-02-20T20:55:19.655Z,1.60
2023-02-20T20:57:47.077Z,1.63
2023-02-20T21:00:33.080Z,1.75
2023-02-20T21:03:01.600Z,1.27
2023-02-20T21:05:30.632Z,1.30
2023-02-20T21:07:58.914Z,1.63
2023-02-20T21:10:27.490Z,1.85
2023-02-20T21:12:54.423Z,1.38
2023-02-20T21:15:23.310Z,2.10
2023-02-20T21:17:50.547Z,1.85
2023-02-20T21:20:22.940Z,2.40
2023-02-20T21:22:51.120Z,2.13
2023-02-20T21:25:21.949Z,2.80
2023-02-20T21:27:51.057Z,1.60
2023-02-20T21:30:19.922Z,2.45
2023-02-20T21:32:48.076Z,2.25
2023-02-20T21:35:16.705Z,1.92
2023-02-20T21:37:43.868Z,2.40
2023-02-20T21:40:11.259Z,2.53
2023-02-20T21:43:01.965Z,2.85
2023-02-20T21:45:29.129Z,2.83
2023-02-20T21:47:57.423Z,2.45
2023-02-20T21:50:26.923Z,2.80
2023-02-20T21:52:54.056Z,2.30
2023-02-20T21:55:21.300Z,2.42
2023-02-20T21:57:48.725Z,2.63
2023-02-20T22:00:16.294Z,2.10
2023-02-20T22:02:43.998Z,2.03
2023-02-20T22:05:13.750Z,2.28
2023-02-20T22:08:05.585Z,2.05
2023-02-20T22:10:50.874Z,2.05
2023-02-20T22:13:36.464Z,1.98
2023-02-20T22:16:22.287Z,1.75
2023-02-20T22:19:07.910Z,1.42
2023-02-20T22:21:53.371Z,1.65
2023-02-20T22:24:39.379Z,1.23
2023-02-20T22:27:26.421Z,1.52
2023-02-20T22:30:12.544Z,1.38
2023-02-20T22:32:58.696Z,1.20
2023-02-20T22:35:44.275Z,0.80
2023-02-20T22:38:29.689Z,1.02
2023-02-20T22:41:15.421Z,0.80
2023-02-20T22:44:00.824Z,0.80
2023-02-20T22:46:46.199Z,1.00
2023-02-20T22:49:31.772Z,1.13
2023-02-20T22:52:17.099Z,0.73
2023-02-20T22:55:05.189Z,1.08
2023-02-20T22:57:51.844Z,1.30
2023-02-20T23:00:37.823Z,1.10
2023-02-20T23:03:23.267Z,1.33
2023-02-20T23:06:19.241Z,1.30
2023-02-20T23:09:08.191Z,1.60
2023-02-20T23:11:54.643Z,1.08
2023-02-20T23:14:40.372Z,1.60
2023-02-20T23:17:35.750Z,2.10
2023-02-20T23:20:35.203Z,1.25
2023-02-20T23:23:20.969Z,1.55
2023-02-20T23:26:06.873Z,1.90
2023-02-20T23:28:52.933Z,1.67
2023-02-20T23:31:39.169Z,1.58
2023-02-20T23:34:24.628Z,1.60
2023-02-20T23:37:10.942Z,1.33
2023-02-20T23:39:56.220Z,1.48
2023-02-20T23:42:41.542Z,2.00
2023-02-20T23:45:27.396Z,1.67
2023-02-20T23:48:12.893Z,1.63
2023-02-20T23:50:58.460Z,1.67
2023-02-20T23:53:43.651Z,1.73
2023-02-20T23:56:29.159Z,1.60
2023-02-20T23:59:15.137Z,1.27
